Terminal Aerodrome Forecast
Issued by NWS St Louis, MO

Home | Current Version | Previous Version | Text Only | Print | Product List | Glossary On
Versions: 1 2 3 4 5 6 7 8 9 10 11 12 13 14 15 16 17 18 19 20 21 22 23 24 25 26 27 28 29 30
000
FTUS43 KLSX 261200 AAA
TAFSTL
TAF AMD
KSTL 261218Z 2612/2718 16012G20KT P6SM VCSH SCT015 OVC100
      TEMPO 2612/2615 6SM -SHRA OVC015
     FM261500 20012G20KT P6SM SCT035 BKN100
     FM270000 22010KT P6SM SCT100=

USA.gov is the U.S. government's official web portal to all federal, state and local government web resources and services.